Pagina principale
METAR-TAF:

METAR-TAF

Aeroporti :

Muş, Turchia

latitudine: 38-45N, longitudine: 041-40E, altezza: 1266 m

Osservazione

Il bollettino è stato emesso 43 minuti fa, alle 02:50 UTC
Vento 4 kt da sud-est
Temperature 1°C
Umidità 55%
Pressione 1024 hPa
Visibilità 10 km o più
nessuna nube inferiore a 1500 m e nessun cumulonembo

METAR: LTCK 240250Z 13004KT CAVOK 01/M07 Q1024

Ora: 06:33 (03:33 UTC)

Previsione

Il bollettino è stato emesso 1 ora e 53 minuti fa, alle 01:40 UTC
Previsione valida dal 24 alle 03 UTC al 24 alle 12 UTC
Vento 2 kt da direzioni variabili
Visibilità 10 km o più
nessuna nube inferiore a 1500 m e nessun cumulonembo
Evoluzione graduale
dal 24 alle 08 UTC al 24 alle 10 UTC
Poco nuvoloso ad un'altezza di 4000 ft

TAF: LTCK 240140Z 2403/2412 VRB02KT CAVOK BECMG 2408/2410 FEW040

Osservazioni e previsioni meteorologiche di più di 4000 aeroporti (messaggi METAR e TAF).

Le stazioni disponibili sono rappresentate dai dischi gialli e rossi sulla carta.

Puntare il mouse per vedere il nome della stazione.

Clicca sopra per visualizzare le osservazioni e previsioni meteorologiche.

Per cambiare la mappa : fare clic sui pulsanti verdi con una croce nera per ingrandire, il pulsante verde con un trattino per diminuire, o sulla freccia verde per le mappe adiacenti.


METAR-TAF: